Time;durP1;ratioP1;P1;durP2;ratioP2;P2;SDS_P1;SDS_P2;PMS_P1;PMS_P2;Temp;Humidity;BMP_temperature;BMP_pressure;BME280_temperature;BME280_humidity;BME280_pressure;Samples;Min_cycle;Max_cycle;Signal;HPM_P1;HPM_P2
2021/12/25 00:00:11;;;;;;;10.90;8.82;;;;;;;15.34;40.71;92089.81;5044716;28;20037;-90
2021/12/25 00:02:37;;;;;;;10.43;7.90;;;;;;;15.35;40.63;92083.13;5014785;28;20033;-90
2021/12/25 00:05:03;;;;;;;12.93;8.80;;;;;;;15.36;40.58;92078.41;5015068;28;20043;-89
2021/12/25 00:07:29;;;;;;;9.95;8.43;;;;;;;15.33;40.78;92074.75;5014492;28;20029;-90
2021/12/25 00:09:54;;;;;;;11.43;8.32;;;;;;;15.35;40.49;92085.13;5015276;28;20068;-91
2021/12/25 00:12:19;;;;;;;10.10;7.85;;;;;;;15.34;40.52;92080.94;4997270;28;20037;-90
2021/12/25 00:14:45;;;;;;;12.68;8.90;;;;;;;15.30;40.74;92094.84;5015374;28;20108;-90
2021/12/25 00:17:10;;;;;;;9.90;8.30;;;;;;;15.27;40.52;92095.16;5014446;28;20436;-90
2021/12/25 00:19:36;;;;;;;9.95;7.50;;;;;;;15.35;40.94;92093.28;5015055;28;20033;-90
2021/12/25 00:22:01;;;;;;;13.00;8.27;;;;;;;15.39;40.75;92091.69;4997877;28;20040;-90
2021/12/25 00:24:27;;;;;;;11.32;7.82;;;;;;;15.31;40.58;92090.13;5013996;28;20125;-90
2021/12/25 00:27:03;;;;;;;8.25;6.65;;;;;;;15.28;40.82;92093.91;5030857;28;20041;-90
2021/12/25 00:34:34;;;;;;;10.35;8.18;;;;;;;15.37;40.70;92088.75;5031367;28;20049;-90
2021/12/25 00:37:00;;;;;;;11.57;8.40;;;;;;;15.33;40.79;92079.47;5013996;28;20124;-90
2021/12/25 00:39:28;;;;;;;10.40;7.65;;;;;;;15.34;40.79;92076.22;5014160;28;20033;-91
2021/12/25 00:41:53;;;;;;;10.98;8.40;;;;;;;15.28;40.82;92078.28;5048879;28;20063;-90
2021/12/25 00:44:19;;;;;;;10.45;7.03;;;;;;;15.32;40.78;92088.88;5014204;28;20446;-90
2021/12/25 00:46:44;;;;;;;8.57;6.70;;;;;;;15.31;40.66;92084.69;5031454;28;20037;-91
2021/12/25 00:49:10;;;;;;;11.13;7.95;;;;;;;15.30;40.67;92080.50;5022946;28;20409;-91
2021/12/25 00:51:35;;;;;;;11.73;8.45;;;;;;;15.28;40.69;92081.03;5007260;28;20038;-91
2021/12/25 00:54:01;;;;;;;10.48;7.65;;;;;;;15.28;40.76;92083.00;4992016;28;20092;-91
2021/12/25 00:56:26;;;;;;;8.68;7.07;;;;;;;15.35;40.71;92087.84;4970453;28;20097;-91
2021/12/25 00:58:51;;;;;;;12.43;6.82;;;;;;;15.31;40.58;92090.13;4970940;28;20119;-90
2021/12/25 01:01:17;;;;;;;9.38;7.22;;;;;;;15.35;40.67;92102.19;4988739;28;20057;-90
2021/12/25 01:03:42;;;;;;;11.75;8.45;;;;;;;15.30;41.01;92094.84;4989948;28;20030;-90
2021/12/25 01:06:07;;;;;;;10.50;8.57;;;;;;;15.33;40.74;92093.81;4989521;28;20057;-90
2021/12/25 01:08:33;;;;;;;10.52;7.90;;;;;;;15.30;40.84;92089.41;4989912;28;20508;-90
2021/12/25 01:11:00;;;;;;;11.07;7.90;;;;;;;15.31;40.71;92087.41;4973574;28;20038;-90
2021/12/25 01:13:35;;;;;;;10.73;7.10;;;;;;;15.29;40.73;92092.63;4972511;28;20034;-90
2021/12/25 01:19:06;;;;;;;9.20;7.60;;;;;;;15.31;40.63;92093.59;4977983;28;20107;-90
2021/12/25 01:24:21;;;;;;;11.30;8.38;;;;;;;15.28;40.79;92102.78;4989832;28;20057;-90
2021/12/25 01:29:38;;;;;;;10.38;7.57;;;;;;;15.29;41.02;92103.53;5012960;28;20531;-90
2021/12/25 01:35:01;;;;;;;10.43;8.10;;;;;;;15.34;40.58;92102.72;5043389;28;20038;-91
2021/12/25 01:39:56;;;;;;;10.82;7.43;;;;;;;15.29;41.13;92109.72;5027928;28;20037;-91
2021/12/25 01:47:49;;;;;;;9.43;6.43;;;;;;;15.38;41.13;92117.44;5025377;28;20025;-90
2021/12/25 01:50:20;;;;;;;9.88;7.57;;;;;;;15.29;41.01;92112.44;5009665;28;20046;-90
2021/12/25 01:52:47;;;;;;;12.13;7.70;;;;;;;15.28;40.74;92113.69;5027855;28;20536;-90
2021/12/25 01:55:19;;;;;;;9.25;6.60;;;;;;;15.27;40.83;92114.22;5010488;28;20046;-90
2021/12/25 01:57:44;;;;;;;11.02;8.25;;;;;;;15.30;40.73;92111.19;5027700;28;20042;-90
2021/12/25 02:00:14;;;;;;;10.10;7.97;;;;;;;15.27;40.92;92108.75;4993833;28;20172;-90
2021/12/25 02:02:39;;;;;;;10.23;7.78;;;;;;;15.30;41.04;92099.56;5028259;28;20108;-90
2021/12/25 02:05:06;;;;;;;9.60;7.15;;;;;;;15.31;40.81;92104.47;5016249;28;20094;-91
2021/12/25 02:07:31;;;;;;;10.63;7.70;;;;;;;15.27;40.90;92097.88;5008695;28;20041;-90
2021/12/25 02:09:57;;;;;;;10.05;7.00;;;;;;;15.30;40.66;92097.56;5005682;28;20034;-90
2021/12/25 02:12:23;;;;;;;10.88;7.95;;;;;;;15.32;40.83;92097.78;5008924;28;20045;-90
2021/12/25 02:14:49;;;;;;;10.88;7.93;;;;;;;15.31;40.63;92085.41;5003844;28;20412;-90
2021/12/25 02:17:37;;;;;;;11.48;7.90;;;;;;;15.31;40.64;92093.59;5011383;28;20037;-89
2021/12/25 02:20:12;;;;;;;9.35;6.93;;;;;;;15.31;40.91;92092.84;5003417;28;20481;-89
2021/12/25 02:22:38;;;;;;;10.13;8.00;;;;;;;15.30;41.00;92083.94;5027110;28;20124;-90
2021/12/25 02:25:03;;;;;;;10.68;8.32;;;;;;;15.29;40.91;92092.63;5012049;28;20080;-90
2021/12/25 02:27:29;;;;;;;9.68;6.95;;;;;;;15.31;40.98;92090.13;4996778;28;20030;-90
2021/12/25 02:29:55;;;;;;;10.43;7.00;;;;;;;15.33;41.34;92087.63;5013707;28;20420;-90
2021/12/25 02:32:20;;;;;;;10.43;7.28;;;;;;;15.34;40.56;92089.81;5016347;28;20116;-91
2021/12/25 02:34:46;;;;;;;9.40;6.65;;;;;;;15.31;40.63;92099.03;5033474;28;20051;-91
2021/12/25 02:37:11;;;;;;;9.70;7.65;;;;;;;15.34;40.88;92102.72;5014298;28;20515;-90
2021/12/25 02:39:36;;;;;;;8.85;6.60;;;;;;;15.31;40.81;92096.31;5010478;28;20030;-90
2021/12/25 02:42:03;;;;;;;10.75;7.57;;;;;;;15.34;40.78;92102.72;4993458;28;20061;-90
2021/12/25 02:44:28;;;;;;;8.15;6.35;;;;;;;15.38;40.89;92101.13;5009493;28;20085;-90
2021/12/25 02:46:55;;;;;;;7.38;6.00;;;;;;;15.31;40.53;92104.47;5010045;28;20479;-90
2021/12/25 02:49:21;;;;;;;8.50;7.18;;;;;;;15.32;40.47;92099.78;5019671;28;20037;-90
2021/12/25 02:51:46;;;;;;;9.70;7.22;;;;;;;15.32;40.91;92097.03;5029261;28;20091;-90
2021/12/25 02:54:12;;;;;;;11.80;8.02;;;;;;;15.29;41.00;92103.53;5029164;28;20042;-90
2021/12/25 02:56:38;;;;;;;9.65;7.13;;;;;;;15.33;40.79;92101.97;5029407;28;20038;-90
2021/12/25 02:59:03;;;;;;;7.75;6.38;;;;;;;15.27;40.96;92095.16;5030562;28;20036;-89
2021/12/25 03:01:29;;;;;;;7.15;6.45;;;;;;;15.35;40.98;92082.41;5013952;28;20037;-90
2021/12/25 03:03:54;;;;;;;9.57;6.93;;;;;;;15.32;40.90;92094.31;5013022;28;20577;-90
2021/12/25 03:06:22;;;;;;;10.18;6.80;;;;;;;15.30;40.93;92091.38;5028481;28;20037;-90
2021/12/25 03:08:47;;;;;;;9.63;6.47;;;;;;;15.32;40.76;92086.88;5013495;28;20197;-90
2021/12/25 03:11:15;;;;;;;11.73;7.95;;;;;;;15.31;40.73;92085.41;5045149;28;20057;-90
2021/12/25 03:13:45;;;;;;;10.15;7.88;;;;;;;15.33;41.08;92077.47;5031466;28;20106;-90
2021/12/25 03:16:10;;;;;;;7.10;5.97;;;;;;;15.40;40.74;92089.72;5016059;28;20037;-89
2021/12/25 03:18:43;;;;;;;7.75;6.10;;;;;;;15.31;40.94;92084.69;5015773;28;20079;-90
2021/12/25 03:21:08;;;;;;;7.60;6.30;;;;;;;15.38;41.22;92076.63;5048661;28;20041;-91
2021/12/25 03:23:35;;;;;;;6.55;5.75;;;;;;;15.34;40.83;92076.22;5015855;28;20048;-90
2021/12/25 03:26:01;;;;;;;7.95;6.40;;;;;;;15.31;40.51;92079.97;5028232;28;20076;-90
2021/12/25 03:28:32;;;;;;;8.13;6.90;;;;;;;15.33;40.82;92074.00;5028268;28;20045;-90
2021/12/25 03:31:04;;;;;;;8.50;6.90;;;;;;;15.32;40.46;92069.81;5029543;28;20029;-90
2021/12/25 03:33:30;;;;;;;9.40;6.90;;;;;;;15.31;40.92;92077.25;5000114;28;20029;-90
2021/12/25 03:35:55;;;;;;;8.18;6.30;;;;;;;15.34;40.86;92072.75;5015650;28;20120;-90
2021/12/25 03:38:21;;;;;;;11.82;7.00;;;;;;;15.34;40.81;92073.50;5018167;28;20535;-91
2021/12/25 03:40:48;;;;;;;10.98;7.82;;;;;;;15.33;40.95;92085.63;5015877;28;20037;-90
2021/12/25 03:43:14;;;;;;;8.77;6.55;;;;;;;15.31;40.98;92092.84;5031283;28;20086;-90
2021/12/25 03:45:39;;;;;;;8.40;6.22;;;;;;;15.33;40.93;92085.63;5015478;28;20037;-89
2021/12/25 03:48:16;;;;;;;7.75;6.22;;;;;;;15.32;40.86;92089.63;5013293;28;20040;-90
2021/12/25 03:58:35;;;;;;;8.95;6.45;;;;;;;15.35;40.98;92085.13;5028501;28;20048;-90
2021/12/25 04:01:13;;;;;;;7.40;5.85;;;;;;;15.27;40.79;92095.88;5010199;28;20041;-90
2021/12/25 04:03:48;;;;;;;7.90;6.43;;;;;;;15.34;40.98;92086.38;4992392;28;20427;-90
2021/12/25 04:06:14;;;;;;;8.30;6.47;;;;;;;15.33;40.95;92096.53;5012795;28;20034;-90
2021/12/25 04:08:45;;;;;;;9.82;6.90;;;;;;;15.36;40.81;92097.47;5028023;28;20056;-90
2021/12/25 04:11:25;;;;;;;8.27;6.15;;;;;;;15.37;41.00;92094.19;4995127;28;20120;-90
2021/12/25 04:13:50;;;;;;;9.25;6.80;;;;;;;15.33;40.68;92103.97;5013720;28;20048;-90
2021/12/25 04:16:15;;;;;;;11.70;7.13;;;;;;;15.34;40.66;92091.81;4975102;28;20034;-89
2021/12/25 04:18:41;;;;;;;8.40;6.28;;;;;;;15.38;40.74;92103.84;4992097;28;20034;-90
2021/12/25 04:21:06;;;;;;;8.27;6.13;;;;;;;15.37;40.96;92102.38;4991508;28;20033;-90
2021/12/25 04:23:32;;;;;;;8.60;6.47;;;;;;;15.35;40.88;92099.47;4991874;28;20065;-90
2021/12/25 04:25:59;;;;;;;8.32;6.63;;;;;;;15.31;40.73;92101.03;4979687;28;20523;-89
2021/12/25 04:31:23;;;;;;;8.18;6.55;;;;;;;15.35;40.96;92096.75;5024253;28;20121;-90
2021/12/25 05:03:48;;;;;;;7.40;5.88;;;;;;;15.29;41.13;92079.75;5021212;28;20100;-90
2021/12/25 05:06:14;;;;;;;9.70;6.15;;;;;;;15.28;41.20;92091.91;5021828;28;20034;-90
2021/12/25 05:08:39;;;;;;;9.60;6.63;;;;;;;15.31;40.65;92092.84;4991961;28;20084;-90
2021/12/25 05:11:05;;;;;;;8.32;6.63;;;;;;;15.33;40.83;92095.78;5006630;28;20033;-90
2021/12/25 05:13:32;;;;;;;9.27;6.45;;;;;;;15.32;40.86;92097.78;5007192;28;20583;-90
2021/12/25 05:15:57;;;;;;;6.80;5.68;;;;;;;15.32;41.17;92100.50;5010781;28;20049;-91
2021/12/25 05:18:23;;;;;;;7.35;6.30;;;;;;;15.32;41.13;92105.22;4993427;28;20033;-89
2021/12/25 05:20:49;;;;;;;9.82;6.88;;;;;;;15.33;40.91;92101.25;5010112;28;20431;-91
2021/12/25 05:23:14;;;;;;;6.85;5.50;;;;;;;15.28;41.04;92094.63;5026767;28;20554;-91
2021/12/25 05:25:40;;;;;;;7.72;5.85;;;;;;;15.26;40.96;92088.97;4994320;28;20448;-90
2021/12/25 05:28:06;;;;;;;7.57;5.78;;;;;;;15.33;40.92;92101.97;5037362;28;20041;-91
2021/12/25 05:30:31;;;;;;;9.68;6.35;;;;;;;15.29;41.33;92092.63;5010855;28;20128;-90
2021/12/25 05:32:57;;;;;;;7.82;6.32;;;;;;;15.29;41.18;92089.91;5026840;28;20030;-91
2021/12/25 05:35:25;;;;;;;7.78;5.78;;;;;;;15.33;41.19;92088.34;5026975;28;20045;-90
2021/12/25 05:37:56;;;;;;;9.35;6.90;;;;;;;15.33;40.92;92090.34;5026715;28;20068;-90
2021/12/25 05:40:23;;;;;;;9.23;6.35;;;;;;;15.32;41.11;92094.31;5010694;28;20077;-90
2021/12/25 05:42:49;;;;;;;9.43;6.07;;;;;;;15.30;40.84;92088.66;5007288;28;20092;-91
2021/12/25 05:45:14;;;;;;;8.05;6.65;;;;;;;15.34;41.02;92092.56;5006279;28;20030;-90
2021/12/25 05:47:40;;;;;;;8.02;6.43;;;;;;;15.37;41.00;92088.75;5023799;28;20026;-90
2021/12/25 05:50:05;;;;;;;8.77;5.72;;;;;;;15.37;41.13;92088.75;4990431;28;20042;-90
2021/12/25 05:52:31;;;;;;;9.52;5.78;;;;;;;15.38;41.20;92081.31;5006406;28;20524;-90
2021/12/25 05:54:56;;;;;;;6.88;5.70;;;;;;;15.38;40.95;92081.31;5007532;28;20115;-90
2021/12/25 05:57:21;;;;;;;7.15;5.22;;;;;;;15.36;41.34;92090.03;4990075;28;20049;-90
2021/12/25 05:59:47;;;;;;;7.70;5.95;;;;;;;15.34;40.97;92078.94;5023348;28;20041;-90
2021/12/25 06:02:12;;;;;;;7.95;5.75;;;;;;;15.39;41.17;92083.53;4998031;28;20103;-91
2021/12/25 06:04:38;;;;;;;7.72;5.82;;;;;;;15.30;41.06;92078.50;5006428;28;20458;-90
2021/12/25 06:07:04;;;;;;;7.13;5.57;;;;;;;15.30;41.18;92092.13;5007679;28;20034;-89
2021/12/25 06:09:29;;;;;;;8.18;6.20;;;;;;;15.32;41.00;92088.88;5022289;28;20061;-90
2021/12/25 06:11:55;;;;;;;6.60;5.90;;;;;;;15.31;41.39;92085.41;5022717;28;20033;-90
2021/12/25 06:14:21;;;;;;;9.35;6.85;;;;;;;15.32;41.14;92088.88;5017708;28;20030;-90
2021/12/25 06:16:48;;;;;;;8.85;6.32;;;;;;;15.35;41.01;92085.13;4992609;28;20042;-90
2021/12/25 06:19:13;;;;;;;6.43;5.40;;;;;;;15.31;41.03;92081.97;5007906;28;20159;-90
2021/12/25 06:21:39;;;;;;;8.93;6.03;;;;;;;15.34;40.84;92083.66;5016651;28;20042;-90
2021/12/25 06:24:05;;;;;;;7.82;6.40;;;;;;;15.32;41.08;92095.06;5010177;28;20107;-90
2021/12/25 06:26:31;;;;;;;7.32;5.88;;;;;;;15.36;41.19;92089.31;4996398;28;20043;-90
2021/12/25 06:28:56;;;;;;;7.80;5.72;;;;;;;15.27;41.19;92095.88;4998814;28;20439;-90
2021/12/25 06:31:22;;;;;;;7.70;5.90;;;;;;;15.30;41.12;92094.09;4997337;28;20056;-90
2021/12/25 06:33:48;;;;;;;7.55;5.38;;;;;;;15.37;41.18;92090.78;5046650;28;20036;-90
2021/12/25 06:36:13;;;;;;;8.10;5.55;;;;;;;15.29;41.07;92093.38;5013145;28;20365;-90
2021/12/25 06:38:40;;;;;;;6.35;5.68;;;;;;;15.35;40.85;92094.00;5046623;28;20025;-90
2021/12/25 06:41:06;;;;;;;6.07;4.90;;;;;;;15.34;41.17;92089.09;5013257;28;20029;-90
2021/12/25 06:43:31;;;;;;;7.53;5.75;;;;;;;15.32;41.10;92099.78;4997406;28;20045;-90
2021/12/25 06:45:56;;;;;;;7.80;5.22;;;;;;;15.33;41.09;92091.09;5013339;28;20044;-90
2021/12/25 06:48:22;;;;;;;8.05;6.00;;;;;;;15.33;41.04;92093.81;5009214;28;20053;-90
2021/12/25 06:50:48;;;;;;;8.00;5.93;;;;;;;15.34;40.94;92092.56;4993865;28;20412;-90
2021/12/25 06:53:13;;;;;;;6.30;5.43;;;;;;;15.31;40.97;92092.84;5011163;28;20030;-90
2021/12/25 06:55:38;;;;;;;8.70;6.10;;;;;;;15.32;41.19;92091.59;5013627;28;20049;-90
2021/12/25 06:58:04;;;;;;;7.78;5.85;;;;;;;15.26;41.13;92086.25;5029479;28;20113;-90
2021/12/25 07:00:30;;;;;;;8.07;5.80;;;;;;;15.27;41.43;92090.44;5025938;28;20041;-90
2021/12/25 07:02:57;;;;;;;6.38;5.18;;;;;;;15.27;41.15;92097.88;5051667;28;20511;-90
2021/12/25 07:05:23;;;;;;;8.07;6.25;;;;;;;15.32;40.97;92081.44;5028777;28;20053;-90
2021/12/25 07:07:48;;;;;;;6.70;5.85;;;;;;;15.31;40.99;92079.97;5029799;28;20038;-90
2021/12/25 07:10:13;;;;;;;8.20;5.85;;;;;;;15.32;41.23;92078.00;5028478;28;20046;-91
2021/12/25 07:12:43;;;;;;;7.07;5.78;;;;;;;15.33;40.83;92077.47;5012782;28;20045;-90
2021/12/25 07:15:09;;;;;;;9.57;5.90;;;;;;;15.30;41.29;92080.50;5028839;28;20546;-90
2021/12/25 07:17:34;;;;;;;7.20;5.43;;;;;;;15.33;41.38;92087.63;5012631;28;20045;-90
2021/12/25 07:19:59;;;;;;;7.03;6.00;;;;;;;15.34;40.88;92086.38;5029419;28;20042;-90
2021/12/25 07:22:26;;;;;;;7.40;5.57;;;;;;;15.32;41.12;92081.44;5028279;28;20032;-90
2021/12/25 07:24:51;;;;;;;8.15;6.10;;;;;;;15.29;41.22;92077.03;5013143;28;20057;-90
2021/12/25 07:27:17;;;;;;;8.05;6.10;;;;;;;15.34;41.08;92070.78;5027982;28;20026;-90
2021/12/25 07:29:42;;;;;;;5.80;4.95;;;;;;;15.31;41.03;92077.25;5029044;28;20029;-90
2021/12/25 07:32:07;;;;;;;6.75;5.47;;;;;;;15.34;41.22;92070.78;5011494;28;20036;-90
2021/12/25 07:34:33;;;;;;;7.72;5.65;;;;;;;15.33;40.98;92069.31;5012444;28;20029;-90
2021/12/25 07:36:58;;;;;;;7.18;6.00;;;;;;;15.35;41.09;92072.25;5028801;28;20045;-91
2021/12/25 07:39:24;;;;;;;7.18;6.15;;;;;;;15.37;40.98;92071.72;5028104;28;20109;-91
2021/12/25 07:41:49;;;;;;;8.52;6.15;;;;;;;15.34;40.91;92080.94;5028835;28;20037;-90
2021/12/25 07:44:15;;;;;;;6.85;5.22;;;;;;;15.40;41.07;92082.28;5028157;28;20034;-90
2021/12/25 07:46:40;;;;;;;6.45;5.20;;;;;;;15.39;41.15;92083.53;5029038;28;20040;-90
2021/12/25 07:49:06;;;;;;;8.75;6.10;;;;;;;15.33;40.88;92091.09;5011066;28;20048;-90
2021/12/25 07:51:31;;;;;;;6.85;5.65;;;;;;;15.33;40.93;92082.19;5044371;28;20033;-90
2021/12/25 07:53:57;;;;;;;7.57;5.93;;;;;;;15.31;40.91;92085.41;5012722;28;20037;-91
2021/12/25 07:56:26;;;;;;;5.78;5.05;;;;;;;15.33;41.26;92084.91;5002663;28;20046;-90
2021/12/25 07:58:52;;;;;;;7.03;5.32;;;;;;;15.31;41.18;92074.53;5012953;28;20439;-91
2021/12/25 08:01:17;;;;;;;8.15;6.32;;;;;;;15.35;41.31;92074.97;5010872;28;20051;-90
2021/12/25 08:03:43;;;;;;;8.55;5.88;;;;;;;15.37;41.20;92063.53;5011862;28;20041;-90
2021/12/25 08:06:08;;;;;;;5.32;4.68;;;;;;;15.34;41.03;92087.09;5011624;28;20091;-90
2021/12/25 08:08:34;;;;;;;5.68;4.53;;;;;;;15.35;40.96;92094.00;5012178;28;20030;-90
2021/12/25 08:10:59;;;;;;;7.95;6.20;;;;;;;15.30;41.27;92091.38;5011554;28;20042;-91
2021/12/25 08:13:24;;;;;;;7.30;5.43;;;;;;;15.30;41.22;92094.09;4994769;28;20109;-90
2021/12/25 08:15:50;;;;;;;7.40;5.70;;;;;;;15.32;40.99;92086.16;5027573;28;20038;-90
2021/12/25 08:18:15;;;;;;;7.65;5.22;;;;;;;15.32;41.17;92086.88;5027653;28;20034;-90
2021/12/25 08:20:41;;;;;;;6.40;5.13;;;;;;;15.30;41.06;92086.69;5028582;28;20064;-90
2021/12/25 08:23:07;;;;;;;5.72;4.57;;;;;;;15.31;41.13;92087.41;5027461;28;20038;-90
2021/12/25 08:25:32;;;;;;;6.35;4.95;;;;;;;15.29;41.41;92085.22;5028227;28;20040;-90
2021/12/25 08:27:58;;;;;;;7.18;4.93;;;;;;;15.31;41.23;92079.97;5044465;28;20139;-90
2021/12/25 08:30:26;;;;;;;6.97;5.70;;;;;;;15.33;41.11;92084.91;5026580;28;20045;-90
2021/12/25 08:32:55;;;;;;;7.20;5.50;;;;;;;15.34;41.36;92075.47;5044068;28;20053;-90
2021/12/25 08:35:21;;;;;;;6.50;5.20;;;;;;;15.33;40.95;92068.56;5012056;28;20048;-90
2021/12/25 08:37:46;;;;;;;7.25;5.57;;;;;;;15.36;41.00;92079.16;5008283;28;20034;-91
2021/12/25 08:40:12;;;;;;;5.82;4.85;;;;;;;15.37;41.05;92077.16;5026216;28;20518;-91
2021/12/25 08:42:44;;;;;;;7.50;5.55;;;;;;;15.33;41.36;92066.56;5027767;28;20048;-90
2021/12/25 08:45:20;;;;;;;6.10;4.80;;;;;;;15.30;41.20;92064.16;4995287;28;20038;-90
2021/12/25 08:47:45;;;;;;;4.88;4.32;;;;;;;15.34;41.35;92048.97;5012239;28;20037;-90
2021/12/25 08:50:11;;;;;;;6.25;4.60;;;;;;;15.38;41.17;92057.56;5009957;28;20057;-90
2021/12/25 08:52:36;;;;;;;6.00;5.15;;;;;;;15.34;41.11;92042.81;5010428;28;20033;-90
2021/12/25 08:55:03;;;;;;;6.70;5.40;;;;;;;15.34;41.11;92051.72;5011168;28;20038;-90
2021/12/25 08:57:28;;;;;;;6.97;5.50;;;;;;;15.37;40.62;92047.91;5027232;28;20516;-90
2021/12/25 08:59:56;;;;;;;6.22;5.03;;;;;;;15.29;41.29;92049.81;5018768;28;20048;-90
2021/12/25 09:02:21;;;;;;;6.70;5.35;;;;;;;15.32;41.19;92056.94;5016702;28;20056;-90
2021/12/25 09:04:47;;;;;;;8.52;5.65;;;;;;;15.32;41.20;92062.38;4983550;28;20033;-90
2021/12/25 09:07:13;;;;;;;6.60;5.18;;;;;;;15.26;41.14;92059.03;5010087;28;20041;-91
2021/12/25 09:09:39;;;;;;;7.07;5.00;;;;;;;15.30;41.05;92073.06;5027535;28;20026;-90
2021/12/25 09:12:05;;;;;;;6.15;4.88;;;;;;;15.34;40.91;92078.94;5026333;28;20034;-90
2021/12/25 09:14:30;;;;;;;7.50;5.90;;;;;;;15.34;40.98;92099.97;4994785;28;20369;-91
2021/12/25 09:16:56;;;;;;;5.68;4.90;;;;;;;15.30;40.97;92105.72;5010033;28;20033;-90
2021/12/25 09:19:21;;;;;;;7.25;5.28;;;;;;;15.34;41.09;92108.16;5009835;28;20050;-90
2021/12/25 09:21:47;;;;;;;6.22;5.30;;;;;;;15.33;41.37;92112.13;5011069;28;20045;-90
2021/12/25 09:24:12;;;;;;;5.68;4.75;;;;;;;15.31;41.28;92101.75;5010378;28;20044;-90
2021/12/25 09:26:37;;;;;;;6.93;5.20;;;;;;;15.36;41.13;92098.22;5037459;28;20033;-91
2021/12/25 09:29:03;;;;;;;6.40;4.95;;;;;;;15.35;40.91;92110.34;5022769;28;20037;-90
2021/12/25 09:31:28;;;;;;;6.93;4.80;;;;;;;15.37;41.25;92112.56;5010954;28;20436;-91
2021/12/25 09:33:54;;;;;;;6.75;5.35;;;;;;;15.34;41.17;92103.44;5011497;28;20033;-91
2021/12/25 09:36:20;;;;;;;5.43;4.25;;;;;;;15.29;41.41;92103.53;5027310;28;20087;-91
2021/12/25 09:38:46;;;;;;;6.40;5.13;;;;;;;15.29;41.22;92092.63;5044263;28;20029;-90
2021/12/25 09:41:11;;;;;;;6.82;5.05;;;;;;;15.25;41.25;92087.50;5022000;28;20038;-90
2021/12/25 09:43:39;;;;;;;5.43;4.47;;;;;;;15.30;41.25;92088.66;5027690;28;20037;-90
2021/12/25 09:46:06;;;;;;;6.93;4.93;;;;;;;15.30;41.24;92094.09;5010267;28;20033;-90
2021/12/25 09:48:31;;;;;;;6.30;5.00;;;;;;;15.35;41.37;92083.13;5015892;28;20041;-90
2021/12/25 09:50:58;;;;;;;6.43;5.35;;;;;;;15.36;41.21;92090.03;5032319;28;20139;-90
2021/12/25 09:53:24;;;;;;;8.77;5.63;;;;;;;15.34;41.23;92094.53;5045784;28;20049;-90
2021/12/25 09:55:49;;;;;;;6.25;4.60;;;;;;;15.33;40.96;92091.09;5029854;28;20033;-90
2021/12/25 09:58:15;;;;;;;6.82;5.85;;;;;;;15.39;41.09;92093.69;5030367;28;20070;-90
2021/12/25 10:00:42;;;;;;;5.85;4.50;;;;;;;15.40;41.05;92087.72;5003294;28;20042;-90
2021/12/25 10:03:08;;;;;;;6.63;5.18;;;;;;;15.34;41.13;92092.56;5009842;28;20061;-90
2021/12/25 10:05:41;;;;;;;5.97;4.38;;;;;;;15.41;41.34;92083.00;5014891;28;20046;-91
2021/12/25 10:08:13;;;;;;;6.57;4.90;;;;;;;15.36;41.04;92089.31;5017710;28;20049;-91
2021/12/25 10:10:44;;;;;;;6.32;5.00;;;;;;;15.32;40.89;92092.34;5011005;28;20034;-91
2021/12/25 10:13:30;;;;;;;6.97;5.10;;;;;;;15.37;41.09;92099.66;5036005;28;20042;-91
2021/12/25 10:15:58;;;;;;;5.10;4.38;;;;;;;15.37;40.97;92093.50;5041214;28;20053;-91
2021/12/25 10:18:25;;;;;;;6.45;4.93;;;;;;;15.31;41.27;92096.31;5020976;28;20400;-90
2021/12/25 10:20:50;;;;;;;6.72;5.05;;;;;;;15.31;41.32;92104.47;4978607;28;20068;-90
2021/12/25 10:23:22;;;;;;;6.43;4.13;;;;;;;15.33;40.97;92101.25;4994019;28;20069;-90
2021/12/25 10:25:58;;;;;;;6.63;4.72;;;;;;;15.29;41.24;92087.19;4982998;28;20554;-90
2021/12/25 10:28:31;;;;;;;6.35;4.75;;;;;;;15.35;41.00;92085.84;5019852;28;20042;-90
2021/12/25 10:30:59;;;;;;;4.88;3.92;;;;;;;15.29;41.21;92084.47;4997455;28;20033;-91
2021/12/25 10:33:27;;;;;;;6.03;4.95;;;;;;;15.31;41.26;92087.41;4980664;28;20438;-91
2021/12/25 10:35:53;;;;;;;6.35;5.03;;;;;;;15.34;41.16;92091.81;5014133;28;20048;-90
2021/12/25 10:38:22;;;;;;;6.78;5.72;;;;;;;15.33;41.20;92093.81;4981240;28;20054;-90
2021/12/25 10:40:47;;;;;;;5.15;4.55;;;;;;;15.31;41.19;92087.41;4981490;28;20048;-90
2021/12/25 10:43:22;;;;;;;7.20;4.90;;;;;;;15.34;40.81;92092.56;5012544;28;20045;-90
2021/12/25 10:46:00;;;;;;;5.10;4.07;;;;;;;15.36;41.18;92092.03;5029918;28;20123;-90
2021/12/25 10:48:28;;;;;;;7.25;4.40;;;;;;;15.30;41.38;92091.38;5029873;28;20061;-91
2021/12/25 10:50:53;;;;;;;6.25;4.80;;;;;;;15.32;41.29;92086.16;5029766;28;20045;-90
2021/12/25 10:53:34;;;;;;;6.85;5.05;;;;;;;15.31;41.20;92092.84;5028351;28;20045;-90
2021/12/25 10:56:08;;;;;;;5.75;4.50;;;;;;;15.40;41.28;92089.72;5013163;28;20041;-90
2021/12/25 10:58:33;;;;;;;4.97;4.40;;;;;;;15.27;41.43;92095.16;5027957;28;20124;-90
2021/12/25 11:00:59;;;;;;;5.63;4.53;;;;;;;15.26;41.10;92085.50;4993482;28;20130;-90
2021/12/25 11:03:26;;;;;;;6.78;4.43;;;;;;;15.26;41.42;92080.06;4980411;28;20042;-90
2021/12/25 11:05:52;;;;;;;5.68;4.50;;;;;;;15.37;41.07;92088.06;5012723;28;20543;-90
2021/12/25 11:08:19;;;;;;;6.78;4.85;;;;;;;15.37;41.11;92079.88;5020982;28;20151;-91
2021/12/25 11:10:46;;;;;;;5.10;4.05;;;;;;;15.31;41.00;92073.78;5028965;28;20091;-90
2021/12/25 11:13:30;;;;;;;5.95;4.22;;;;;;;15.26;41.26;92075.34;5029222;28;20094;-90
2021/12/25 11:16:03;;;;;;;6.03;4.75;;;;;;;15.29;41.26;92079.75;5029747;28;20100;-90
2021/12/25 11:18:31;;;;;;;4.90;3.88;;;;;;;15.26;41.27;92082.78;5019602;28;20041;-90
2021/12/25 11:20:56;;;;;;;7.00;4.95;;;;;;;15.26;41.08;92067.19;5037501;28;20062;-90
2021/12/25 11:23:22;;;;;;;6.13;4.88;;;;;;;15.25;41.29;92071.16;5008257;28;20061;-90
2021/12/25 11:25:47;;;;;;;8.02;4.93;;;;;;;15.27;41.13;92073.38;5009228;28;20042;-90
2021/12/25 11:28:14;;;;;;;6.15;4.50;;;;;;;15.27;41.26;92074.09;4992739;28;20581;-90
2021/12/25 11:30:42;;;;;;;5.40;4.50;;;;;;;15.24;40.71;92079.84;5003971;28;20048;-90
2021/12/25 11:33:07;;;;;;;5.05;4.25;;;;;;;15.23;41.48;92076.41;5045190;28;20133;-90
2021/12/25 11:35:35;;;;;;;5.93;4.50;;;;;;;15.29;41.13;92076.31;5046091;28;20112;-89
2021/12/25 11:38:03;;;;;;;4.80;4.07;;;;;;;15.25;41.23;92073.88;5029726;28;20107;-90
2021/12/25 11:40:29;;;;;;;4.75;4.20;;;;;;;15.34;40.95;92067.31;5028469;28;20038;-90
2021/12/25 11:42:56;;;;;;;4.25;3.60;;;;;;;15.33;41.02;92063.13;5031935;28;20293;-90
2021/12/25 11:45:26;;;;;;;4.75;4.00;;;;;;;15.24;41.20;92063.53;5024552;28;20495;-91
2021/12/25 11:47:53;;;;;;;6.20;4.53;;;;;;;15.27;41.03;92051.59;5026253;28;20117;-91
2021/12/25 11:50:22;;;;;;;5.55;4.63;;;;;;;15.28;41.15;92066.66;5041358;28;20064;-89
2021/12/25 11:53:23;;;;;;;5.90;4.40;;;;;;;15.22;41.03;92055.88;5012013;28;20057;-90
2021/12/25 11:58:51;;;;;;;5.47;4.07;;;;;;;15.30;41.11;92064.16;5013403;28;20041;-90
2021/12/25 12:01:22;;;;;;;6.13;4.60;;;;;;;15.23;41.05;92060.06;4991729;28;20034;-90
2021/12/25 12:03:52;;;;;;;;;;;;;;;15.28;41.04;92059.25;5029079;28;20503;-90
2021/12/25 12:06:18;;;;;;;5.13;4.20;;;;;;;15.28;41.02;92058.50;5036700;28;19921;-91
2021/12/25 12:08:53;;;;;;;6.25;4.53;;;;;;;15.26;41.08;92052.84;5009182;28;20038;-90
2021/12/25 12:11:22;;;;;;;6.70;5.05;;;;;;;15.30;41.15;92064.16;5009441;28;20506;-91
2021/12/25 12:13:48;;;;;;;9.23;4.65;;;;;;;15.26;41.19;92061.00;4992498;28;20379;-90
2021/12/25 12:16:13;;;;;;;5.63;3.85;;;;;;;15.27;41.21;92068.66;5024989;28;20509;-90
2021/12/25 12:18:39;;;;;;;5.85;4.22;;;;;;;15.26;40.95;92067.19;5033792;28;20037;-90
2021/12/25 12:21:15;;;;;;;6.03;4.57;;;;;;;15.30;41.06;92073.06;5044434;28;20048;-90
2021/12/25 12:26:11;;;;;;;4.93;4.30;;;;;;;15.29;40.88;92074.31;5028400;28;20060;-91
2021/12/25 12:28:52;;;;;;;4.15;3.65;;;;;;;15.29;41.13;92065.41;5028667;28;20484;-90
2021/12/25 12:31:39;;;;;;;5.55;4.35;;;;;;;15.27;41.10;92076.81;5013042;28;20045;-90
2021/12/25 12:34:30;;;;;;;5.30;4.13;;;;;;;15.30;40.97;92077.78;5009270;28;20125;-89
2021/12/25 12:37:14;;;;;;;4.40;3.63;;;;;;;15.31;41.12;92081.97;5009467;28;20034;-90
2021/12/25 12:39:44;;;;;;;3.92;3.35;;;;;;;15.28;41.01;92074.84;5027376;28;20044;-90
2021/12/25 12:42:12;;;;;;;4.88;4.18;;;;;;;15.27;41.01;92084.25;5010211;28;20128;-91